createdAt,value
2018-04-14T00:01:59.112Z,90.53
2018-04-14T00:04:27.363Z,90.85
2018-04-14T00:06:55.617Z,90.35
2018-04-14T00:09:23.880Z,89.23
2018-04-14T00:11:52.905Z,90.23
2018-04-14T00:14:21.157Z,89.82
2018-04-14T00:16:50.189Z,90.80
2018-04-14T00:19:18.446Z,91.76
2018-04-14T00:21:46.702Z,92.34
2018-04-14T00:24:15.722Z,92.17
2018-04-14T00:26:43.981Z,92.17
2018-04-14T00:29:12.235Z,92.54
2018-04-14T00:31:40.484Z,92.77
2018-04-14T00:34:08.745Z,92.71
2018-04-14T00:36:37.009Z,91.55
2018-04-14T00:39:06.023Z,92.37
2018-04-14T00:41:34.286Z,92.76
2018-04-14T00:44:02.546Z,91.82
2018-04-14T00:46:30.814Z,92.40
2018-04-14T00:48:59.069Z,93.18
2018-04-14T00:51:28.088Z,93.49
2018-04-14T00:53:56.354Z,93.16
2018-04-14T00:56:24.610Z,93.78
2018-04-14T00:58:53.627Z,93.37
2018-04-14T01:01:21.885Z,93.05
2018-04-14T01:03:50.149Z,92.63
2018-04-14T01:06:19.180Z,91.21
2018-04-14T01:08:47.438Z,91.06
2018-04-14T01:11:15.689Z,90.63
2018-04-14T01:13:44.717Z,90.93
2018-04-14T01:16:12.977Z,91.63
2018-04-14T01:18:41.234Z,91.56
2018-04-14T01:21:10.249Z,90.90
2018-04-14T01:23:38.579Z,91.31
2018-04-14T01:26:06.832Z,91.20
2018-04-14T01:28:35.089Z,90.03
2018-04-14T01:31:03.348Z,90.06
2018-04-14T01:33:32.380Z,91.54
2018-04-14T01:36:00.639Z,89.59
2018-04-14T01:38:28.892Z,91.08
2018-04-14T01:40:57.921Z,91.60
2018-04-14T01:43:26.178Z,90.67
2018-04-14T01:45:54.444Z,91.51
2018-04-14T01:48:22.703Z,88.64
2018-04-14T01:50:51.726Z,88.04
2018-04-14T01:53:19.990Z,88.48
2018-04-14T01:55:48.244Z,89.07
2018-04-14T01:58:17.270Z,89.30
2018-04-14T02:00:45.523Z,89.47
2018-04-14T02:03:14.552Z,90.74
2018-04-14T02:05:42.806Z,91.08
2018-04-14T02:08:11.050Z,91.13
2018-04-14T02:10:40.078Z,91.77
2018-04-14T02:13:08.326Z,91.72
2018-04-14T02:15:37.360Z,92.35
2018-04-14T02:18:05.617Z,92.26
2018-04-14T02:20:33.891Z,91.80
2018-04-14T02:23:02.143Z,90.67
2018-04-14T02:25:31.187Z,90.62
2018-04-14T02:27:59.434Z,89.36
2018-04-14T02:30:27.698Z,89.81
2018-04-14T02:32:56.728Z,90.35
2018-04-14T02:35:24.974Z,89.93
2018-04-14T02:37:53.241Z,89.12
2018-04-14T02:40:22.264Z,87.57
2018-04-14T02:42:50.524Z,88.37
2018-04-14T02:45:18.780Z,89.32
2018-04-14T02:47:47.812Z,89.34
2018-04-14T02:50:16.071Z,89.21
2018-04-14T02:52:44.343Z,88.95
2018-04-14T02:55:12.603Z,89.54
2018-04-14T02:57:41.628Z,88.50
2018-04-14T03:00:09.885Z,87.15
2018-04-14T03:02:38.153Z,86.97
2018-04-14T03:05:07.179Z,87.83
2018-04-14T03:07:35.433Z,88.03
2018-04-14T03:10:03.687Z,87.79
2018-04-14T03:12:32.712Z,86.36
2018-04-14T03:15:00.964Z,86.82
2018-04-14T03:17:30.007Z,85.95
2018-04-14T03:19:58.263Z,86.48
2018-04-14T03:22:26.507Z,88.34
2018-04-14T03:24:55.543Z,87.34
2018-04-14T03:27:23.834Z,88.34
2018-04-14T03:29:52.124Z,89.73
2018-04-14T03:32:20.428Z,90.17
2018-04-14T03:34:49.492Z,89.58
2018-04-14T03:37:17.768Z,88.88
2018-04-14T03:39:46.057Z,88.76
2018-04-14T03:42:14.322Z,88.88
2018-04-14T03:44:42.604Z,89.07
2018-04-14T03:47:10.884Z,89.26
2018-04-14T03:49:39.173Z,89.34
2018-04-14T03:52:08.225Z,88.77
2018-04-14T03:54:36.520Z,89.06
2018-04-14T03:57:04.803Z,88.96
2018-04-14T03:59:33.112Z,89.04
2018-04-14T04:02:01.406Z,87.73
2018-04-14T04:04:29.690Z,87.61
2018-04-14T04:06:57.964Z,87.42
2018-04-14T04:09:26.240Z,87.46
2018-04-14T04:11:54.522Z,87.25
2018-04-14T04:14:22.806Z,87.18
2018-04-14T04:16:51.124Z,88.20
2018-04-14T04:19:37.721Z,88.05
2018-04-14T04:22:24.447Z,89.88
2018-04-14T04:25:11.304Z,89.28
2018-04-14T04:27:39.609Z,88.50
2018-04-14T04:30:08.723Z,88.78
2018-04-14T04:32:37.792Z,88.64
2018-04-14T04:35:06.075Z,88.07
2018-04-14T04:37:34.389Z,87.58
2018-04-14T04:40:02.673Z,87.26
2018-04-14T04:42:30.980Z,87.31
2018-04-14T04:44:59.264Z,87.00
2018-04-14T04:47:27.575Z,87.66
2018-04-14T04:49:56.626Z,88.34
2018-04-14T04:52:24.916Z,87.14
2018-04-14T04:54:53.193Z,87.51
2018-04-14T04:57:21.494Z,88.00
2018-04-14T04:59:49.772Z,88.20
2018-04-14T05:02:18.853Z,88.57
2018-04-14T05:04:47.144Z,87.73
2018-04-14T05:07:16.192Z,87.64
2018-04-14T05:09:44.467Z,87.06
2018-04-14T05:12:12.754Z,87.45
2018-04-14T05:14:41.024Z,87.80
2018-04-14T05:17:09.299Z,87.56
2018-04-14T05:19:37.583Z,86.72
2018-04-14T05:22:05.858Z,86.45
2018-04-14T05:24:34.145Z,87.30
2018-04-14T05:27:02.415Z,86.33
2018-04-14T05:29:30.705Z,85.77
2018-04-14T05:31:58.976Z,85.49
2018-04-14T05:34:27.275Z,84.44
2018-04-14T05:36:56.325Z,85.14
2018-04-14T05:39:24.615Z,85.58
2018-04-14T05:41:52.885Z,85.17
2018-04-14T05:44:21.156Z,84.28
2018-04-14T05:46:49.487Z,85.14
2018-04-14T05:49:18.545Z,84.20
2018-04-14T05:51:46.833Z,83.83
2018-04-14T05:54:15.136Z,83.98
2018-04-14T05:56:43.421Z,83.85
2018-04-14T05:59:11.701Z,83.24
2018-04-14T06:01:39.972Z,82.62
2018-04-14T06:04:08.272Z,81.96
2018-04-14T06:06:36.560Z,80.90
2018-04-14T06:09:05.659Z,82.54
2018-04-14T06:11:33.962Z,83.84
2018-04-14T06:14:02.284Z,82.51
2018-04-14T06:16:30.588Z,81.85
2018-04-14T06:18:58.880Z,82.51
2018-04-14T06:21:27.160Z,81.71
2018-04-14T06:23:55.436Z,81.02
2018-04-14T06:26:23.711Z,81.10
2018-04-14T06:28:52.003Z,80.19
2018-04-14T06:31:21.076Z,80.18
2018-04-14T06:33:49.404Z,79.35
2018-04-14T06:36:17.637Z,78.63
2018-04-14T06:38:45.916Z,78.22
2018-04-14T06:41:14.191Z,78.07
2018-04-14T06:43:42.472Z,76.97
2018-04-14T06:46:11.552Z,77.40
2018-04-14T06:48:39.843Z,76.88
2018-04-14T06:51:08.149Z,78.93
2018-04-14T06:53:36.439Z,79.34
2018-04-14T06:56:04.739Z,80.33
2018-04-14T06:58:33.022Z,80.92
2018-04-14T07:01:01.326Z,79.49
2018-04-14T07:03:29.624Z,79.59
2018-04-14T07:05:58.675Z,77.90
2018-04-14T07:08:26.974Z,78.57
2018-04-14T07:10:55.277Z,77.66
2018-04-14T07:13:23.623Z,77.54
2018-04-14T07:15:51.927Z,76.51
2018-04-14T07:18:20.989Z,76.18
2018-04-14T07:20:49.304Z,76.42
2018-04-14T07:23:18.360Z,75.71
2018-04-14T07:25:46.652Z,75.43
2018-04-14T07:28:15.730Z,79.40
2018-04-14T07:30:44.035Z,77.05
2018-04-14T07:33:12.346Z,77.72
2018-04-14T07:35:40.638Z,76.84
2018-04-14T07:38:08.928Z,73.93
2018-04-14T07:40:37.216Z,71.14
2018-04-14T07:43:05.500Z,71.87
2018-04-14T07:45:33.797Z,71.32
2018-04-14T07:48:02.082Z,70.02
2018-04-14T07:50:30.397Z,71.56
2018-04-14T07:52:58.689Z,70.09
2018-04-14T07:55:27.012Z,70.64
2018-04-14T07:57:55.308Z,70.64
2018-04-14T08:00:23.631Z,70.33
2018-04-14T08:02:52.696Z,70.64
2018-04-14T08:05:20.991Z,70.59
2018-04-14T08:07:49.274Z,70.52
2018-04-14T08:10:17.611Z,69.25
2018-04-14T08:12:45.891Z,69.33
2018-04-14T08:15:14.165Z,68.35
2018-04-14T08:17:42.466Z,67.85
2018-04-14T08:20:10.767Z,65.95
2018-04-14T08:22:39.812Z,66.38
2018-04-14T08:25:08.107Z,66.90
2018-04-14T08:27:36.386Z,65.88
2018-04-14T08:30:04.659Z,66.34
2018-04-14T08:32:32.910Z,66.94
2018-04-14T08:35:01.171Z,65.20
2018-04-14T08:37:29.492Z,66.39
2018-04-14T08:39:58.455Z,66.04
2018-04-14T08:42:26.726Z,65.84
2018-04-14T08:44:55.007Z,64.59
2018-04-14T08:47:23.290Z,66.21
2018-04-14T08:49:51.519Z,65.73
2018-04-14T08:52:20.542Z,65.41
2018-04-14T08:54:48.815Z,63.43
2018-04-14T08:57:17.083Z,63.39
2018-04-14T08:59:45.345Z,64.85
2018-04-14T09:02:13.637Z,63.48
2018-04-14T09:04:41.937Z,63.43
2018-04-14T09:07:10.203Z,62.70
2018-04-14T09:09:38.459Z,63.14
2018-04-14T09:12:06.735Z,62.81
2018-04-14T09:14:34.983Z,62.98
2018-04-14T09:17:03.243Z,61.17
2018-04-14T09:19:31.502Z,61.63
2018-04-14T09:21:59.756Z,61.51
2018-04-14T09:24:28.024Z,60.74
2018-04-14T09:26:56.296Z,62.18
2018-04-14T09:29:24.585Z,61.48
2018-04-14T09:31:52.843Z,60.97
2018-04-14T09:34:21.115Z,60.39
2018-04-14T09:36:49.385Z,60.83
2018-04-14T09:39:18.416Z,60.15
2018-04-14T09:41:46.673Z,59.04
2018-04-14T09:44:14.933Z,57.86
2018-04-14T09:46:43.970Z,57.92
2018-04-14T09:49:12.230Z,57.05
2018-04-14T09:51:40.482Z,57.86
2018-04-14T09:54:08.765Z,56.64
2018-04-14T09:56:37.054Z,56.56
2018-04-14T09:59:05.350Z,56.42
2018-04-14T10:01:33.614Z,55.98
2018-04-14T10:04:01.872Z,55.41
2018-04-14T10:06:30.137Z,54.55
2018-04-14T10:08:58.391Z,54.86
2018-04-14T10:11:27.429Z,55.58
2018-04-14T10:13:55.680Z,55.49
2018-04-14T10:16:23.945Z,55.87
2018-04-14T10:18:52.201Z,53.77
2018-04-14T10:21:20.467Z,53.12
2018-04-14T10:23:48.745Z,54.75
2018-04-14T10:26:17.017Z,54.93
2018-04-14T10:28:45.268Z,53.51
2018-04-14T10:31:13.561Z,52.48
2018-04-14T10:33:41.819Z,52.16
2018-04-14T10:36:10.080Z,51.80
2018-04-14T10:38:38.330Z,53.00
2018-04-14T10:41:07.374Z,52.63
2018-04-14T10:43:35.645Z,52.93
2018-04-14T10:46:03.927Z,52.59
2018-04-14T10:48:32.192Z,53.32
2018-04-14T10:51:00.448Z,51.75
2018-04-14T10:53:28.718Z,50.80
2018-04-14T10:55:56.988Z,50.96
2018-04-14T10:58:25.252Z,52.15
2018-04-14T11:00:54.286Z,51.00
2018-04-14T11:03:22.554Z,51.06
2018-04-14T11:05:50.814Z,51.08
2018-04-14T11:08:19.083Z,52.64
2018-04-14T11:10:47.350Z,52.26
2018-04-14T11:13:16.391Z,51.75
2018-04-14T11:15:44.641Z,50.59
2018-04-14T11:18:12.900Z,49.27
2018-04-14T11:20:41.924Z,49.17
2018-04-14T11:23:10.185Z,46.65
2018-04-14T11:25:38.459Z,49.16
2018-04-14T11:28:06.715Z,49.67
2018-04-14T11:30:34.983Z,49.64
2018-04-14T11:33:04.006Z,49.42
2018-04-14T11:35:32.274Z,49.57
2018-04-14T11:38:00.526Z,48.58
2018-04-14T11:40:28.789Z,45.91
2018-04-14T11:42:57.055Z,45.60
2018-04-14T11:45:25.322Z,43.40
2018-04-14T11:47:53.580Z,45.80
2018-04-14T11:50:21.846Z,47.22
2018-04-14T11:52:50.101Z,48.57
2018-04-14T11:55:18.364Z,47.79
2018-04-14T11:57:47.382Z,47.76
2018-04-14T12:00:15.655Z,47.41
2018-04-14T12:02:43.904Z,47.46
2018-04-14T12:05:12.935Z,45.87
2018-04-14T12:07:41.193Z,45.68
2018-04-14T12:10:09.490Z,46.20
2018-04-14T12:12:37.745Z,45.72
2018-04-14T12:15:06.011Z,45.37
2018-04-14T12:17:34.274Z,45.78
2018-04-14T12:20:03.301Z,45.15
2018-04-14T12:22:31.565Z,45.21
2018-04-14T12:24:59.833Z,44.84
2018-04-14T12:27:28.093Z,41.28
2018-04-14T12:29:56.350Z,39.64
2018-04-14T12:32:24.616Z,39.58
2018-04-14T12:34:52.876Z,40.17
2018-04-14T12:37:21.138Z,40.33
2018-04-14T12:39:49.389Z,39.93
2018-04-14T12:42:17.670Z,41.23
2018-04-14T12:44:45.920Z,37.79
2018-04-14T12:47:14.181Z,39.21
2018-04-14T12:49:43.072Z,39.84
2018-04-14T12:52:11.340Z,38.25
2018-04-14T12:54:40.391Z,35.97
2018-04-14T12:57:08.645Z,35.92
2018-04-14T12:59:36.909Z,37.80
2018-04-14T13:02:05.942Z,37.32
2018-04-14T13:04:34.188Z,39.68
2018-04-14T13:07:03.059Z,41.09
2018-04-14T13:09:31.305Z,40.40
2018-04-14T13:11:59.570Z,39.43
2018-04-14T13:14:27.842Z,41.76
2018-04-14T13:16:56.095Z,40.10
2018-04-14T13:19:24.350Z,40.69
2018-04-14T13:21:52.619Z,41.04
2018-04-14T13:24:20.902Z,42.11
2018-04-14T13:26:49.919Z,39.03
2018-04-14T13:29:18.181Z,38.56
2018-04-14T13:31:46.441Z,35.88
2018-04-14T13:34:15.473Z,35.70
2018-04-14T13:36:43.749Z,37.69
2018-04-14T13:39:12.015Z,40.80
2018-04-14T13:41:40.273Z,39.90
2018-04-14T13:44:08.545Z,38.37
2018-04-14T13:46:37.670Z,36.06
2018-04-14T13:49:05.945Z,38.45
2018-04-14T13:51:34.201Z,38.71
2018-04-14T13:54:03.813Z,37.78
2018-04-14T13:56:32.076Z,36.95
2018-04-14T13:59:00.792Z,36.70
2018-04-14T14:01:29.081Z,37.48
2018-04-14T14:03:57.339Z,37.23
2018-04-14T14:06:25.601Z,37.34
2018-04-14T14:08:53.856Z,35.62
2018-04-14T14:11:22.900Z,36.84
2018-04-14T14:13:51.151Z,36.98
2018-04-14T14:16:19.417Z,34.14
2018-04-14T14:18:47.659Z,35.78
2018-04-14T14:21:15.924Z,33.97
2018-04-14T14:23:44.164Z,38.61
2018-04-14T14:26:12.418Z,35.89
2018-04-14T14:28:40.688Z,34.95
2018-04-14T14:31:09.698Z,35.84
2018-04-14T14:33:37.979Z,35.50
2018-04-14T14:36:06.979Z,34.71
2018-04-14T14:38:35.238Z,36.53
2018-04-14T14:41:03.500Z,37.41
2018-04-14T14:43:32.514Z,35.34
2018-04-14T14:46:00.768Z,33.90
2018-04-14T14:48:29.068Z,35.31
2018-04-14T14:50:58.062Z,33.80
2018-04-14T14:53:26.317Z,34.52
2018-04-14T14:55:54.581Z,32.80
2018-04-14T14:58:23.632Z,36.18
2018-04-14T15:00:51.893Z,33.71
2018-04-14T15:03:20.178Z,33.58
2018-04-14T15:05:48.449Z,32.87
2018-04-14T15:08:16.714Z,33.72
2018-04-14T15:10:44.961Z,32.68
2018-04-14T15:13:13.222Z,30.44
2018-04-14T15:15:42.237Z,31.86
2018-04-14T15:18:10.499Z,32.64
2018-04-14T15:20:38.766Z,32.60
2018-04-14T15:23:07.025Z,33.10
2018-04-14T15:25:35.288Z,31.43
2018-04-14T15:28:04.239Z,30.02
2018-04-14T15:30:32.485Z,31.39
2018-04-14T15:33:00.756Z,34.24
2018-04-14T15:35:29.821Z,34.28
2018-04-14T15:37:58.096Z,32.62
2018-04-14T15:40:26.360Z,31.81
2018-04-14T15:42:54.608Z,29.27
2018-04-14T15:45:22.898Z,32.77
2018-04-14T15:47:51.173Z,32.62
2018-04-14T15:50:19.430Z,32.51
2018-04-14T15:52:47.690Z,30.42
2018-04-14T15:55:15.946Z,31.98
2018-04-14T15:57:44.213Z,33.92
2018-04-14T16:00:12.478Z,34.18
2018-04-14T16:02:41.303Z,34.82
2018-04-14T16:05:10.329Z,36.28
2018-04-14T16:07:38.587Z,36.65
2018-04-14T16:10:06.866Z,35.79
2018-04-14T16:12:35.112Z,36.45
2018-04-14T16:15:03.379Z,38.32
2018-04-14T16:17:31.655Z,38.76
2018-04-14T16:19:59.910Z,38.25
2018-04-14T16:22:28.765Z,37.98
2018-04-14T16:24:57.060Z,38.14
2018-04-14T16:27:25.319Z,39.17
2018-04-14T16:29:54.493Z,39.93
2018-04-14T16:32:23.539Z,40.65
2018-04-14T16:34:51.797Z,41.68
2018-04-14T16:37:20.056Z,41.64
2018-04-14T16:39:48.511Z,41.92
2018-04-14T16:42:18.251Z,42.35
2018-04-14T16:44:46.801Z,42.57
2018-04-14T16:47:15.716Z,42.75
2018-04-14T16:49:44.869Z,43.42
2018-04-14T16:52:13.120Z,43.84
2018-04-14T16:54:42.217Z,43.90
2018-04-14T16:57:11.254Z,44.02
2018-04-14T16:59:40.274Z,44.09
2018-04-14T17:02:08.528Z,44.47
2018-04-14T17:04:36.778Z,44.75
2018-04-14T17:07:05.032Z,45.29
2018-04-14T17:09:33.289Z,45.62
2018-04-14T17:12:01.544Z,44.79
2018-04-14T17:14:29.798Z,45.35
2018-04-14T17:16:58.053Z,45.45
2018-04-14T17:19:26.304Z,45.72
2018-04-14T17:21:54.560Z,45.57
2018-04-14T17:24:22.821Z,46.17
2018-04-14T17:26:51.837Z,46.90
2018-04-14T17:29:20.086Z,47.66
2018-04-14T17:31:49.117Z,48.12
2018-04-14T17:34:17.479Z,48.31
2018-04-14T17:36:45.721Z,47.52
2018-04-14T17:39:21.902Z,47.77
2018-04-14T17:41:50.158Z,48.08
2018-04-14T17:44:19.233Z,47.75
2018-04-14T17:46:47.428Z,48.92
2018-04-14T17:49:16.453Z,49.00
2018-04-14T17:51:44.692Z,49.35
2018-04-14T17:54:13.718Z,50.45
2018-04-14T17:56:41.961Z,52.96
2018-04-14T17:59:10.977Z,53.52
2018-04-14T18:01:39.584Z,53.08
2018-04-14T18:04:07.837Z,52.36
2018-04-14T18:06:36.080Z,51.74
2018-04-14T18:09:04.354Z,53.26
2018-04-14T18:11:32.606Z,52.94
2018-04-14T18:14:00.866Z,52.33
2018-04-14T18:16:29.125Z,53.45
2018-04-14T18:18:57.381Z,52.62
2018-04-14T18:21:26.389Z,52.98
2018-04-14T18:23:54.651Z,53.36
2018-04-14T18:26:23.663Z,55.12
2018-04-14T18:28:51.919Z,54.48
2018-04-14T18:31:20.217Z,53.49
2018-04-14T18:33:49.219Z,53.68
2018-04-14T18:36:17.471Z,54.14
2018-04-14T18:38:45.716Z,54.20
2018-04-14T18:41:14.746Z,54.54
2018-04-14T18:43:43.002Z,54.92
2018-04-14T18:46:12.030Z,54.28
2018-04-14T18:48:40.280Z,54.89
2018-04-14T18:51:08.544Z,54.79
2018-04-14T18:53:37.562Z,54.52
2018-04-14T18:56:05.818Z,54.57
2018-04-14T18:58:34.843Z,54.51
2018-04-14T19:01:03.095Z,55.21
2018-04-14T19:03:31.353Z,55.92
2018-04-14T19:06:00.374Z,56.39
2018-04-14T19:08:28.637Z,57.12
2018-04-14T19:10:56.902Z,56.87
2018-04-14T19:13:25.913Z,55.89
2018-04-14T19:15:54.185Z,56.64
2018-04-14T19:18:22.442Z,55.94
2018-04-14T19:20:51.485Z,56.45
2018-04-14T19:23:19.743Z,56.18
2018-04-14T19:25:47.992Z,55.54
2018-04-14T19:28:17.014Z,55.11
2018-04-14T19:30:45.265Z,55.01
2018-04-14T19:33:14.290Z,56.31
2018-04-14T19:35:42.538Z,56.69
2018-04-14T19:38:10.800Z,56.29
2018-04-14T19:40:39.812Z,57.10
2018-04-14T19:43:08.077Z,57.14
2018-04-14T19:45:37.084Z,57.58
2018-04-14T19:48:05.367Z,58.99
2018-04-14T19:50:33.608Z,59.44
2018-04-14T19:53:02.630Z,59.07
2018-04-14T19:55:30.880Z,58.39
2018-04-14T19:57:59.904Z,58.82
2018-04-14T20:00:28.160Z,57.98
2018-04-14T20:02:56.428Z,57.56
2018-04-14T20:05:25.453Z,58.50
2018-04-14T20:07:53.713Z,57.66
2018-04-14T20:10:21.965Z,57.62
2018-04-14T20:12:50.986Z,58.65
2018-04-14T20:15:19.237Z,59.85
2018-04-14T20:17:48.262Z,61.13
2018-04-14T20:20:16.509Z,61.02
2018-04-14T20:22:45.535Z,60.34
2018-04-14T20:25:13.787Z,61.04
2018-04-14T20:27:42.880Z,60.85
2018-04-14T20:30:11.140Z,59.17
2018-04-14T20:32:40.174Z,58.86
2018-04-14T20:35:08.425Z,58.93
2018-04-14T20:37:36.677Z,59.51
2018-04-14T20:40:04.942Z,57.81
2018-04-14T20:42:33.240Z,58.00
2018-04-14T20:45:02.276Z,61.50
2018-04-14T20:47:30.610Z,62.87
2018-04-14T20:49:58.869Z,64.08
2018-04-14T20:52:27.125Z,63.03
2018-04-14T20:54:56.157Z,64.92
2018-04-14T20:57:24.430Z,63.64
2018-04-14T20:59:52.703Z,62.63
2018-04-14T21:02:20.966Z,63.95
2018-04-14T21:04:49.232Z,64.86
2018-04-14T21:07:17.498Z,65.51
2018-04-14T21:09:45.769Z,65.81
2018-04-14T21:12:14.067Z,66.32
2018-04-14T21:14:42.375Z,66.71
2018-04-14T21:17:10.632Z,66.64
2018-04-14T21:19:38.893Z,64.58
2018-04-14T21:22:07.147Z,64.99
2018-04-14T21:24:35.421Z,65.07
2018-04-14T21:27:03.678Z,65.89
2018-04-14T21:29:31.939Z,66.10
2018-04-14T21:32:00.197Z,67.79
2018-04-14T21:34:29.240Z,67.47
2018-04-14T21:36:57.512Z,67.58
2018-04-14T21:39:25.783Z,66.54
2018-04-14T21:41:54.060Z,66.22
2018-04-14T21:44:22.329Z,66.08
2018-04-14T21:46:50.597Z,65.49
2018-04-14T21:49:18.870Z,65.59
2018-04-14T21:51:47.153Z,65.84
2018-04-14T21:54:15.427Z,66.85
2018-04-14T21:56:43.710Z,67.39
2018-04-14T21:59:12.099Z,67.21
2018-04-14T22:01:40.454Z,67.28
2018-04-14T22:04:08.714Z,68.34
2018-04-14T22:06:37.755Z,69.46
2018-04-14T22:09:06.757Z,69.63
2018-04-14T22:11:35.040Z,69.32
2018-04-14T22:14:03.298Z,69.46
2018-04-14T22:16:31.560Z,69.16
2018-04-14T22:18:59.816Z,68.56
2018-04-14T22:21:28.075Z,68.41
2018-04-14T22:23:57.098Z,67.89
2018-04-14T22:26:25.349Z,68.28
2018-04-14T22:28:53.606Z,67.81
2018-04-14T22:31:22.624Z,67.49
2018-04-14T22:33:50.896Z,67.37
2018-04-14T22:36:19.145Z,67.60
2018-04-14T22:38:48.170Z,67.72
2018-04-14T22:41:16.418Z,68.33
2018-04-14T22:43:45.444Z,68.26
2018-04-14T22:46:13.700Z,68.06
2018-04-14T22:48:42.721Z,68.23
2018-04-14T22:51:10.982Z,68.28
2018-04-14T22:53:39.236Z,68.79
2018-04-14T22:56:08.254Z,68.96
2018-04-14T22:58:36.516Z,69.47
2018-04-14T23:01:05.539Z,69.91
2018-04-14T23:03:33.796Z,70.29
2018-04-14T23:06:02.058Z,72.03
2018-04-14T23:08:31.104Z,72.83
2018-04-14T23:10:59.360Z,73.58
2018-04-14T23:13:27.633Z,73.75
2018-04-14T23:15:55.885Z,73.55
2018-04-14T23:18:24.136Z,73.66
2018-04-14T23:20:53.160Z,74.48
2018-04-14T23:23:21.420Z,74.72
2018-04-14T23:25:50.451Z,75.36
2018-04-14T23:28:18.705Z,75.62
2018-04-14T23:30:46.968Z,75.23
2018-04-14T23:33:15.998Z,75.16
2018-04-14T23:35:45.090Z,74.81
2018-04-14T23:38:13.346Z,75.27
2018-04-14T23:40:41.611Z,75.20
2018-04-14T23:43:09.874Z,75.42
2018-04-14T23:45:38.906Z,75.54
2018-04-14T23:48:07.183Z,75.91
2018-04-14T23:50:35.452Z,76.34
2018-04-14T23:53:03.716Z,76.57
2018-04-14T23:55:32.010Z,76.83
2018-04-14T23:58:00.264Z,76.69
